Time;durP1;ratioP1;P1;durP2;ratioP2;P2;SDS_P1;SDS_P2;PMS_P1;PMS_P2;Temp;Humidity;BMP_temperature;BMP_pressure;BME280_temperature;BME280_humidity;BME280_pressure;Samples;Min_cycle;Max_cycle;Signal;HPM_P1;HPM_P2
2022/07/08 00:00:41;;;;;;;7.82;1.95;;;14.60;99.90;;;;;;5054873;28;20070;-67
2022/07/08 00:03:07;;;;;;;7.72;1.77;;;14.50;99.90;;;;;;5033901;28;20045;-67
2022/07/08 00:05:33;;;;;;;5.53;1.63;;;14.50;99.90;;;;;;5044035;28;20590;-70
2022/07/08 00:07:59;;;;;;;9.35;1.90;;;14.50;99.90;;;;;;5060780;28;20076;-69
2022/07/08 00:10:25;;;;;;;7.97;1.80;;;14.50;99.90;;;;;;5071715;28;20052;-69
2022/07/08 00:12:51;;;;;;;7.22;1.80;;;14.50;99.90;;;;;;5066329;28;20040;-67
2022/07/08 00:15:17;;;;;;;8.93;1.92;;;14.50;99.90;;;;;;5068012;28;20107;-67
2022/07/08 00:17:43;;;;;;;7.97;1.58;;;14.50;99.90;;;;;;5059438;28;21185;-72
2022/07/08 00:20:09;;;;;;;5.63;1.50;;;14.50;99.90;;;;;;5069415;28;20045;-67
2022/07/08 00:22:36;;;;;;;9.25;2.45;;;14.50;99.90;;;;;;5050970;28;20183;-68
2022/07/08 00:25:03;;;;;;;7.15;1.60;;;14.50;99.90;;;;;;5031703;28;20453;-71
2022/07/08 00:27:29;;;;;;;11.10;1.80;;;14.40;99.90;;;;;;5046421;28;20073;-69
2022/07/08 00:29:54;;;;;;;10.82;1.80;;;14.40;99.90;;;;;;5051508;28;20088;-68
2022/07/08 00:32:20;;;;;;;7.13;1.60;;;14.40;99.90;;;;;;5068295;28;20545;-68
2022/07/08 00:34:46;;;;;;;9.48;1.80;;;14.30;99.90;;;;;;5088134;28;20142;-67
2022/07/08 00:37:11;;;;;;;6.18;1.95;;;14.30;99.90;;;;;;5073695;28;20049;-68
2022/07/08 00:39:37;;;;;;;7.70;1.50;;;14.30;99.90;;;;;;5085228;28;20044;-67
2022/07/08 00:42:04;;;;;;;5.80;1.52;;;14.30;99.90;;;;;;5052614;28;20568;-68
2022/07/08 00:44:29;;;;;;;5.40;1.92;;;14.20;99.90;;;;;;5046741;28;20492;-67
2022/07/08 00:46:55;;;;;;;7.75;1.70;;;14.20;99.90;;;;;;5043043;28;20136;-69
2022/07/08 00:49:21;;;;;;;5.93;1.73;;;14.20;99.90;;;;;;5067231;28;20040;-67
2022/07/08 00:51:48;;;;;;;6.20;1.73;;;14.20;99.90;;;;;;5066888;28;20451;-67
2022/07/08 00:54:16;;;;;;;6.70;1.83;;;14.20;99.90;;;;;;5070340;28;20051;-68
2022/07/08 00:56:43;;;;;;;7.45;1.58;;;14.20;99.90;;;;;;5076361;28;20041;-67
2022/07/08 00:59:09;;;;;;;8.45;1.70;;;14.20;99.90;;;;;;5037158;28;20116;-68
2022/07/08 01:01:35;;;;;;;8.32;1.90;;;14.20;99.90;;;;;;5051529;28;20048;-67
2022/07/08 01:04:02;;;;;;;9.27;1.77;;;14.20;99.90;;;;;;5048927;28;20068;-67
2022/07/08 01:06:28;;;;;;;9.23;2.05;;;14.30;99.90;;;;;;5070082;28;20123;-67
2022/07/08 01:08:54;;;;;;;6.80;1.98;;;14.30;99.90;;;;;;5037426;28;20179;-68
2022/07/08 01:11:20;;;;;;;7.45;1.70;;;14.20;99.90;;;;;;5041979;28;20486;-68
2022/07/08 01:13:47;;;;;;;12.38;2.00;;;14.20;99.90;;;;;;5049703;28;20044;-67
2022/07/08 01:16:13;;;;;;;10.48;2.05;;;14.20;99.90;;;;;;5035802;28;20045;-70
2022/07/08 01:18:40;;;;;;;8.65;1.70;;;14.00;99.90;;;;;;5056162;28;20066;-68
2022/07/08 01:21:06;;;;;;;10.55;1.90;;;14.00;99.90;;;;;;5070192;28;20048;-68
2022/07/08 01:23:31;;;;;;;8.10;1.80;;;13.90;99.90;;;;;;5033377;28;20642;-68
2022/07/08 01:25:58;;;;;;;13.23;2.25;;;13.80;99.90;;;;;;5062257;28;20049;-69
2022/07/08 01:28:24;;;;;;;7.07;1.73;;;13.80;99.90;;;;;;5069180;28;20105;-68
2022/07/08 01:30:50;;;;;;;10.45;2.38;;;13.70;99.90;;;;;;5070568;28;20440;-68
2022/07/08 01:33:16;;;;;;;6.45;1.83;;;13.70;99.90;;;;;;5083563;28;20051;-68
2022/07/08 01:35:42;;;;;;;14.70;2.35;;;13.60;99.90;;;;;;5049678;28;20044;-67
2022/07/08 01:38:08;;;;;;;11.35;1.95;;;13.60;99.90;;;;;;5063463;28;20091;-69
2022/07/08 01:40:34;;;;;;;11.38;1.95;;;13.50;99.90;;;;;;5050744;28;20501;-67
2022/07/08 01:42:59;;;;;;;11.32;2.38;;;13.50;99.90;;;;;;5048409;28;20037;-68
2022/07/08 01:45:25;;;;;;;9.70;1.95;;;13.50;99.90;;;;;;5062211;28;20486;-69
2022/07/08 01:47:50;;;;;;;8.52;1.70;;;13.40;99.90;;;;;;5056521;28;20060;-67
2022/07/08 01:50:16;;;;;;;8.32;2.00;;;13.40;99.90;;;;;;5050080;28;20040;-67
2022/07/08 01:52:42;;;;;;;12.18;1.98;;;13.40;99.90;;;;;;5050314;28;20154;-67
2022/07/08 01:55:07;;;;;;;10.98;2.20;;;13.30;99.90;;;;;;5071800;28;20052;-67
2022/07/08 01:57:34;;;;;;;10.63;2.00;;;13.30;99.90;;;;;;5053133;28;20452;-67
2022/07/08 02:00:00;;;;;;;7.15;1.73;;;13.30;99.90;;;;;;5072234;28;20060;-69
2022/07/08 02:02:26;;;;;;;9.90;1.80;;;13.20;99.90;;;;;;5073743;28;20076;-68
2022/07/08 02:04:52;;;;;;;12.63;2.15;;;13.10;99.90;;;;;;5036611;28;20082;-67
2022/07/08 02:07:18;;;;;;;13.85;2.20;;;13.20;99.90;;;;;;5071222;28;20080;-67
2022/07/08 02:09:44;;;;;;;7.55;2.00;;;13.10;99.90;;;;;;5089134;28;20094;-67
2022/07/08 02:12:19;;;;;;;13.90;2.58;;;13.10;99.90;;;;;;5050600;28;20076;-68
2022/07/08 02:14:49;;;;;;;6.60;1.75;;;13.10;99.90;;;;;;5056678;28;20079;-67
2022/07/08 02:17:16;;;;;;;9.53;2.00;;;13.10;99.90;;;;;;5040876;28;20457;-67
2022/07/08 02:19:43;;;;;;;10.50;2.00;;;13.10;99.90;;;;;;5058938;28;20111;-67
2022/07/08 02:22:09;;;;;;;6.60;1.95;;;13.10;99.90;;;;;;5056105;28;20045;-68
2022/07/08 02:24:36;;;;;;;6.50;2.05;;;13.10;99.90;;;;;;5060499;28;20080;-67
2022/07/08 02:27:02;;;;;;;14.75;2.53;;;13.10;99.90;;;;;;5065864;28;20044;-67
2022/07/08 02:29:28;;;;;;;9.80;1.92;;;13.10;99.90;;;;;;5048994;28;20275;-70
2022/07/08 02:31:54;;;;;;;12.45;2.33;;;13.10;99.90;;;;;;5047562;28;20135;-68
2022/07/08 02:34:19;;;;;;;10.18;2.08;;;13.00;99.90;;;;;;5048653;28;20055;-68
2022/07/08 02:36:45;;;;;;;12.30;2.30;;;13.10;99.90;;;;;;5058939;28;20052;-67
2022/07/08 02:39:12;;;;;;;11.18;2.33;;;13.00;99.90;;;;;;5058782;28;20045;-67
2022/07/08 02:41:39;;;;;;;9.40;1.90;;;13.00;99.90;;;;;;5059895;28;20045;-67
2022/07/08 02:44:06;;;;;;;11.77;2.03;;;12.90;99.90;;;;;;5090405;28;20049;-67
2022/07/08 02:46:32;;;;;;;11.98;2.35;;;12.90;99.90;;;;;;5052582;28;20395;-68
2022/07/08 02:48:58;;;;;;;10.10;2.08;;;12.80;99.90;;;;;;5051209;28;20067;-67
2022/07/08 02:51:24;;;;;;;14.65;2.53;;;12.80;99.90;;;;;;5047373;28;20442;-70
2022/07/08 02:53:49;;;;;;;8.23;2.15;;;12.80;99.90;;;;;;5049183;28;20127;-67
2022/07/08 02:56:15;;;;;;;9.45;2.03;;;12.70;99.90;;;;;;5076804;28;20531;-68
2022/07/08 02:58:41;;;;;;;10.38;2.13;;;12.70;99.90;;;;;;5047391;28;20041;-70
2022/07/08 03:01:07;;;;;;;15.15;2.05;;;12.70;99.90;;;;;;5057934;28;20049;-73
2022/07/08 03:03:32;;;;;;;10.95;2.30;;;12.70;99.90;;;;;;5059894;28;20040;-68
2022/07/08 03:05:58;;;;;;;8.57;1.98;;;12.60;99.90;;;;;;5044596;28;20404;-72
2022/07/08 03:08:24;;;;;;;9.48;2.50;;;12.60;99.90;;;;;;5062769;28;20461;-69
2022/07/08 03:10:49;;;;;;;11.18;1.92;;;12.60;99.90;;;;;;5043651;28;20097;-74
2022/07/08 03:13:16;;;;;;;8.07;1.88;;;12.60;99.90;;;;;;5060783;28;20041;-71
2022/07/08 03:15:41;;;;;;;7.90;2.03;;;12.60;99.90;;;;;;5061764;28;20048;-67
2022/07/08 03:18:07;;;;;;;9.25;2.42;;;12.60;99.90;;;;;;5036886;28;20071;-67
2022/07/08 03:20:33;;;;;;;11.48;2.20;;;12.60;99.90;;;;;;5038183;28;20080;-69
2022/07/08 03:22:59;;;;;;;11.45;2.28;;;12.60;99.90;;;;;;5062943;28;20048;-68
2022/07/08 03:25:25;;;;;;;9.32;2.33;;;12.60;99.90;;;;;;5055552;28;20052;-68
2022/07/08 03:27:51;;;;;;;13.55;2.45;;;12.60;99.90;;;;;;5043785;28;20045;-68
2022/07/08 03:30:17;;;;;;;9.68;2.28;;;12.60;99.90;;;;;;5062123;28;20037;-68
2022/07/08 03:32:42;;;;;;;13.65;2.20;;;12.60;99.90;;;;;;5046824;28;20043;-70
2022/07/08 03:35:09;;;;;;;10.63;2.40;;;12.10;99.90;;;;;;5064366;28;20091;-70
2022/07/08 03:37:34;;;;;;;12.95;2.40;;;12.60;99.90;;;;;;5062760;28;20052;-69
2022/07/08 03:41:19;;;;;;;8.95;2.70;;;12.60;99.90;;;;;;5046429;28;20053;-68
2022/07/08 03:42:46;;;;;;;9.35;2.72;;;12.60;99.90;;;;;;5047623;28;20171;-71
2022/07/08 03:45:11;;;;;;;11.65;2.47;;;12.60;99.90;;;;;;5075512;28;20765;-69
2022/07/08 03:47:37;;;;;;;8.07;2.15;;;12.70;99.90;;;;;;5039689;28;20060;-67
2022/07/08 03:50:03;;;;;;;8.43;2.22;;;12.70;99.90;;;;;;5062514;28;20092;-69
2022/07/08 03:52:29;;;;;;;9.50;2.58;;;12.70;99.90;;;;;;5059647;28;20048;-68
2022/07/08 03:54:55;;;;;;;10.93;2.00;;;12.80;99.90;;;;;;5055751;28;20094;-68
2022/07/08 03:57:21;;;;;;;8.48;2.25;;;12.80;99.90;;;;;;5051807;28;20045;-67
2022/07/08 03:59:46;;;;;;;4.50;2.00;;;12.90;99.90;;;;;;5028891;28;20037;-68
2022/07/08 04:02:12;;;;;;;10.75;2.53;;;12.90;99.90;;;;;;5021616;28;20044;-68
2022/07/08 04:04:38;;;;;;;6.63;2.10;;;13.00;99.90;;;;;;5059905;28;20082;-67
2022/07/08 04:07:04;;;;;;;10.60;2.50;;;13.00;99.90;;;;;;5062000;28;20076;-68
2022/07/08 04:09:30;;;;;;;8.82;1.98;;;13.00;99.90;;;;;;5051361;28;20545;-69
2022/07/08 04:11:55;;;;;;;10.90;2.03;;;13.10;99.90;;;;;;5050056;28;20128;-68
2022/07/08 04:14:21;;;;;;;9.88;2.30;;;13.20;99.90;;;;;;5044866;28;20131;-68
2022/07/08 04:16:47;;;;;;;6.53;2.42;;;13.20;99.90;;;;;;5085629;28;20132;-68
2022/07/08 04:19:12;;;;;;;6.68;2.22;;;13.30;99.90;;;;;;5023067;28;20044;-68
2022/07/08 04:21:38;;;;;;;6.82;2.10;;;13.30;99.90;;;;;;5054122;28;20055;-67
2022/07/08 04:24:04;;;;;;;10.13;2.30;;;13.30;99.90;;;;;;5050776;28;20064;-68
2022/07/08 04:26:31;;;;;;;8.52;2.35;;;13.40;99.90;;;;;;5051530;28;20402;-68
2022/07/08 04:29:00;;;;;;;6.55;2.15;;;13.40;99.90;;;;;;5054776;28;20082;-68
2022/07/08 04:31:27;;;;;;;10.68;2.25;;;13.40;99.90;;;;;;5061639;28;20335;-68
2022/07/08 04:33:53;;;;;;;8.63;2.38;;;13.40;99.90;;;;;;5025108;28;20052;-68
2022/07/08 04:36:22;;;;;;;11.45;2.80;;;13.40;99.90;;;;;;5044227;28;20179;-67
2022/07/08 04:38:48;;;;;;;10.85;2.20;;;13.40;99.90;;;;;;5060505;28;20040;-68
2022/07/08 04:41:14;;;;;;;9.85;2.65;;;13.40;99.90;;;;;;5059112;28;20037;-69
2022/07/08 04:43:40;;;;;;;13.13;2.83;;;13.40;99.90;;;;;;5071302;28;20087;-67
2022/07/08 04:46:06;;;;;;;10.93;2.50;;;13.40;99.90;;;;;;5037344;28;20052;-68
2022/07/08 04:48:32;;;;;;;13.52;2.78;;;13.50;99.90;;;;;;5045245;28;20090;-71
2022/07/08 04:50:58;;;;;;;10.45;2.53;;;13.50;99.90;;;;;;5067449;28;20459;-68
2022/07/08 04:53:24;;;;;;;10.15;2.60;;;13.50;99.90;;;;;;5041946;28;20165;-68
2022/07/08 04:55:50;;;;;;;5.90;2.47;;;13.60;99.90;;;;;;5059513;28;20481;-68
2022/07/08 04:58:15;;;;;;;12.80;2.58;;;13.60;99.90;;;;;;5059677;28;20045;-67
2022/07/08 05:00:41;;;;;;;8.30;2.50;;;13.70;99.90;;;;;;5027917;28;21350;-68
2022/07/08 05:03:07;;;;;;;16.05;2.55;;;13.80;99.90;;;;;;5032784;28;20097;-67
2022/07/08 05:05:34;;;;;;;8.68;2.50;;;13.90;99.90;;;;;;5055993;28;20044;-70
2022/07/08 05:08:00;;;;;;;10.38;2.67;;;14.10;99.90;;;;;;5046655;28;20058;-69
2022/07/08 05:10:27;;;;;;;8.38;2.33;;;14.30;99.90;;;;;;5054263;28;20401;-68
2022/07/08 05:12:54;;;;;;;9.95;2.45;;;14.50;99.90;;;;;;5044240;28;20059;-69
2022/07/08 05:15:20;;;;;;;12.02;2.63;;;14.50;99.90;;;;;;5045865;28;20044;-68
2022/07/08 05:17:49;;;;;;;9.20;2.58;;;14.60;99.90;;;;;;5051976;28;20044;-69
2022/07/08 05:20:16;;;;;;;9.38;2.22;;;14.50;99.90;;;;;;5054029;28;20094;-68
2022/07/08 05:22:42;;;;;;;9.98;2.20;;;14.70;99.90;;;;;;5072484;28;20093;-68
2022/07/08 05:25:09;;;;;;;8.00;2.45;;;14.80;99.90;;;;;;5046619;28;20037;-68
2022/07/08 05:27:35;;;;;;;19.15;2.78;;;14.80;99.90;;;;;;5060834;28;20946;-69
2022/07/08 05:30:01;;;;;;;12.38;2.22;;;14.90;99.90;;;;;;5053713;28;20048;-67
2022/07/08 05:32:27;;;;;;;13.05;2.53;;;14.90;99.90;;;;;;5068602;28;20040;-68
2022/07/08 05:34:53;;;;;;;6.95;1.95;;;15.00;99.90;;;;;;5051007;28;20493;-74
2022/07/08 05:37:19;;;;;;;11.20;2.50;;;15.10;99.90;;;;;;5062576;28;20131;-67
2022/07/08 05:39:45;;;;;;;12.93;2.53;;;15.20;99.90;;;;;;5071447;28;20152;-69
2022/07/08 05:42:11;;;;;;;7.18;2.20;;;15.40;99.90;;;;;;5086779;28;20048;-68
2022/07/08 05:44:38;;;;;;;8.27;2.10;;;15.50;99.90;;;;;;5087404;28;20048;-68
2022/07/08 05:47:05;;;;;;;13.05;2.70;;;15.60;99.90;;;;;;5045968;28;20057;-68
2022/07/08 05:49:31;;;;;;;8.90;2.50;;;15.60;99.90;;;;;;5057779;28;20044;-69
2022/07/08 05:51:57;;;;;;;11.52;2.20;;;15.60;99.90;;;;;;5052006;28;20729;-69
2022/07/08 05:54:23;;;;;;;9.23;2.30;;;15.70;99.90;;;;;;5087137;28;20048;-69
2022/07/08 05:56:49;;;;;;;10.23;2.55;;;15.70;99.90;;;;;;5053359;28;20134;-71
2022/07/08 05:59:14;;;;;;;9.35;2.45;;;15.70;99.90;;;;;;5050162;28;20045;-69
2022/07/08 06:01:40;;;;;;;5.85;1.90;;;15.80;99.90;;;;;;5066103;28;20052;-69
2022/07/08 06:04:06;;;;;;;12.50;2.30;;;15.80;99.90;;;;;;5049765;28;20132;-69
2022/07/08 06:06:32;;;;;;;15.27;2.80;;;15.80;99.90;;;;;;5069311;28;20040;-69
2022/07/08 06:08:58;;;;;;;11.95;2.20;;;15.90;99.90;;;;;;5081279;28;20132;-68
2022/07/08 06:11:23;;;;;;;10.43;2.30;;;15.90;99.90;;;;;;5058696;28;20052;-68
2022/07/08 06:13:49;;;;;;;11.13;2.72;;;16.00;99.90;;;;;;5033588;28;20474;-68
2022/07/08 06:16:15;;;;;;;8.23;2.00;;;16.10;99.90;;;;;;5050126;28;20124;-70
2022/07/08 06:18:41;;;;;;;9.38;2.55;;;16.30;99.90;;;;;;5031466;28;20171;-70
2022/07/08 06:21:07;;;;;;;10.27;2.25;;;16.20;99.90;;;;;;5052357;28;20049;-68
2022/07/08 06:23:34;;;;;;;11.65;3.00;;;16.30;99.90;;;;;;5052780;28;20515;-69
2022/07/08 06:26:01;;;;;;;13.52;2.22;;;16.30;99.90;;;;;;5087004;28;20059;-67
2022/07/08 06:28:27;;;;;;;10.77;1.85;;;16.40;99.90;;;;;;5033968;28;20051;-68
2022/07/08 06:30:52;;;;;;;11.60;2.20;;;16.50;99.90;;;;;;5018626;28;20044;-67
2022/07/08 06:33:18;;;;;;;16.92;2.20;;;16.50;99.90;;;;;;5051815;28;20047;-68
2022/07/08 06:35:44;;;;;;;17.08;2.30;;;16.60;99.90;;;;;;5053065;28;20041;-68
2022/07/08 06:38:10;;;;;;;7.35;2.20;;;16.70;99.90;;;;;;5061242;28;20052;-69
2022/07/08 06:40:35;;;;;;;14.68;2.25;;;16.80;99.90;;;;;;5089736;28;20048;-68
2022/07/08 06:43:01;;;;;;;6.72;1.85;;;16.90;99.90;;;;;;5038089;28;20098;-72
2022/07/08 06:45:30;;;;;;;9.55;2.05;;;17.00;99.90;;;;;;5043477;28;20045;-70
2022/07/08 06:47:56;;;;;;;9.15;2.00;;;17.20;99.90;;;;;;5055483;28;20053;-68
2022/07/08 06:50:21;;;;;;;9.93;1.90;;;17.30;99.90;;;;;;5046282;28;20178;-69
2022/07/08 06:52:47;;;;;;;9.77;2.08;;;17.40;99.90;;;;;;5036215;28;20370;-68
2022/07/08 06:55:13;;;;;;;10.30;2.03;;;17.50;99.90;;;;;;5044664;28;20056;-70
2022/07/08 06:57:38;;;;;;;7.88;2.00;;;17.60;99.90;;;;;;5065613;28;20127;-68
2022/07/08 07:00:05;;;;;;;10.48;2.10;;;17.60;99.90;;;;;;5069109;28;20045;-68
2022/07/08 07:02:31;;;;;;;9.80;1.98;;;17.70;99.90;;;;;;5051780;28;20053;-69
2022/07/08 07:04:57;;;;;;;7.72;1.80;;;17.60;99.90;;;;;;5055438;28;20045;-68
2022/07/08 07:07:23;;;;;;;11.13;2.22;;;17.80;99.90;;;;;;5052905;28;20468;-68
2022/07/08 07:09:48;;;;;;;6.43;1.92;;;17.80;99.90;;;;;;5054568;28;20059;-69
2022/07/08 07:12:17;;;;;;;13.63;2.50;;;17.70;99.90;;;;;;5062306;28;20398;-68
2022/07/08 07:14:43;;;;;;;9.30;2.10;;;17.80;99.90;;;;;;5079708;28;20051;-69
2022/07/08 07:17:08;;;;;;;7.20;1.90;;;17.90;99.90;;;;;;5059599;28;20053;-71
2022/07/08 07:19:34;;;;;;;7.70;1.80;;;17.90;99.90;;;;;;5047549;28;20068;-72
2022/07/08 07:22:00;;;;;;;11.10;2.47;;;17.90;99.90;;;;;;5045508;28;20509;-71
2022/07/08 07:24:26;;;;;;;9.20;1.80;;;18.00;99.90;;;;;;5058527;28;20126;-71
2022/07/08 07:26:51;;;;;;;6.47;1.85;;;18.10;99.90;;;;;;5047308;28;20048;-75
2022/07/08 07:29:18;;;;;;;9.50;2.20;;;18.10;99.90;;;;;;5046936;28;20559;-73
2022/07/08 07:31:44;;;;;;;9.75;1.83;;;18.00;99.90;;;;;;5044905;28;20045;-76
2022/07/08 07:34:09;;;;;;;11.32;2.22;;;18.10;99.90;;;;;;5058624;28;20048;-72
2022/07/08 07:36:35;;;;;;;13.05;2.30;;;18.10;99.90;;;;;;5051845;28;20045;-72
2022/07/08 07:39:01;;;;;;;11.02;2.10;;;17.80;99.90;;;;;;5044582;28;20080;-72
2022/07/08 07:41:27;;;;;;;9.70;2.55;;;17.90;99.90;;;;;;5051594;28;20063;-74
2022/07/08 07:43:53;;;;;;;10.13;1.95;;;17.80;99.90;;;;;;5047335;28;20048;-73
2022/07/08 07:46:18;;;;;;;6.53;2.05;;;17.90;99.90;;;;;;5045996;28;20064;-73
2022/07/08 07:48:45;;;;;;;6.57;2.10;;;18.10;99.90;;;;;;5052339;28;20496;-72
2022/07/08 07:51:11;;;;;;;10.13;2.13;;;18.10;99.90;;;;;;5072041;28;20048;-72
2022/07/08 07:53:37;;;;;;;7.90;1.80;;;18.10;99.90;;;;;;5046157;28;20037;-72
2022/07/08 07:56:02;;;;;;;8.93;1.85;;;18.10;99.90;;;;;;5051242;28;20424;-76
2022/07/08 07:58:28;;;;;;;11.70;2.10;;;18.10;99.90;;;;;;5058968;28;20413;-74
2022/07/08 08:00:54;;;;;;;8.73;2.55;;;18.20;99.90;;;;;;5046071;28;20052;-73
2022/07/08 08:03:20;;;;;;;7.30;1.60;;;18.20;99.90;;;;;;5060921;28;20041;-72
2022/07/08 08:05:45;;;;;;;9.88;1.95;;;18.20;99.90;;;;;;5045445;28;20049;-72
2022/07/08 08:08:12;;;;;;;4.35;1.83;;;18.20;99.90;;;;;;5068302;28;20048;-73
2022/07/08 08:10:37;;;;;;;8.07;1.90;;;18.20;99.90;;;;;;5054781;28;20073;-73
2022/07/08 08:13:04;;;;;;;6.47;1.80;;;18.10;99.90;;;;;;5043742;28;20087;-72
2022/07/08 08:15:30;;;;;;;10.43;2.10;;;18.20;99.90;;;;;;5081099;28;20101;-73
2022/07/08 08:17:57;;;;;;;9.23;2.13;;;18.10;99.90;;;;;;5052490;28;20503;-72
2022/07/08 08:20:25;;;;;;;6.40;1.67;;;18.20;99.90;;;;;;5037273;28;20489;-72
2022/07/08 08:22:51;;;;;;;13.68;2.15;;;18.30;99.90;;;;;;5078504;28;20048;-72
2022/07/08 08:25:20;;;;;;;7.00;1.95;;;18.30;99.90;;;;;;5054927;28;20106;-74
2022/07/08 08:27:47;;;;;;;4.88;1.60;;;18.30;99.90;;;;;;5041943;28;20110;-73
2022/07/08 08:30:15;;;;;;;8.20;1.92;;;18.50;99.90;;;;;;5049551;28;20041;-75
2022/07/08 08:32:41;;;;;;;6.00;1.70;;;18.50;99.90;;;;;;5068553;28;20101;-74
2022/07/08 08:35:09;;;;;;;8.25;1.95;;;18.60;99.90;;;;;;5088112;28;20052;-72
2022/07/08 08:37:35;;;;;;;9.35;1.85;;;18.60;99.90;;;;;;5077329;28;20049;-77
2022/07/08 08:40:05;;;;;;;6.38;1.80;;;18.60;99.90;;;;;;5048657;28;20060;-72
2022/07/08 08:42:32;;;;;;;7.22;1.73;;;18.60;99.90;;;;;;5034334;28;20056;-72
2022/07/08 08:44:59;;;;;;;7.30;1.75;;;18.70;99.90;;;;;;5067715;28;20114;-72
2022/07/08 08:47:33;;;;;;;9.65;1.65;;;18.70;99.90;;;;;;5034198;28;20465;-73
2022/07/08 08:50:53;;;;;;;12.57;2.20;;;18.60;99.90;;;;;;5056901;28;20049;-75
2022/07/08 08:52:49;;;;;;;6.07;1.83;;;18.60;99.90;;;;;;5063552;28;20044;-72
2022/07/08 08:55:23;;;;;;;6.70;2.10;;;18.50;99.90;;;;;;5046193;28;20040;-72
2022/07/08 08:57:50;;;;;;;12.80;2.42;;;18.50;99.90;;;;;;5062887;28;20520;-72
2022/07/08 09:00:16;;;;;;;10.02;2.10;;;18.40;99.90;;;;;;5048176;28;20040;-76
2022/07/08 09:02:42;;;;;;;8.80;2.05;;;18.50;99.90;;;;;;5045144;28;20398;-72
2022/07/08 09:05:08;;;;;;;9.05;1.90;;;18.50;99.90;;;;;;5052917;28;20053;-72
2022/07/08 09:07:34;;;;;;;9.35;2.05;;;18.40;99.90;;;;;;5058485;28;20055;-72
2022/07/08 09:10:01;;;;;;;6.45;2.03;;;18.50;99.90;;;;;;5060778;28;20045;-72
2022/07/08 09:12:27;;;;;;;7.60;1.80;;;18.40;99.90;;;;;;5046012;28;20037;-75
2022/07/08 09:14:54;;;;;;;6.43;1.80;;;18.40;99.90;;;;;;5061106;28;20400;-69
2022/07/08 09:17:21;;;;;;;7.05;1.83;;;18.50;99.90;;;;;;5046174;28;20407;-69
2022/07/08 09:19:49;;;;;;;12.13;2.20;;;18.50;99.90;;;;;;5027605;28;20094;-73
2022/07/08 09:22:15;;;;;;;7.50;1.90;;;18.60;99.90;;;;;;5067271;28;20053;-69
2022/07/08 09:24:41;;;;;;;12.73;2.08;;;18.60;99.90;;;;;;5027633;28;20057;-70
2022/07/08 09:27:11;;;;;;;10.07;2.13;;;18.70;99.90;;;;;;5058332;28;20627;-70
2022/07/08 09:29:56;;;;;;;7.93;1.97;;;18.80;99.90;;;;;;5067915;28;20049;-69
2022/07/08 09:32:22;;;;;;;9.25;2.22;;;18.90;99.90;;;;;;5038507;28;20053;-69
2022/07/08 09:34:47;;;;;;;6.18;1.50;;;19.00;99.90;;;;;;5055514;28;20388;-70
2022/07/08 09:37:16;;;;;;;10.63;1.88;;;19.10;99.90;;;;;;5040893;28;20053;-72
2022/07/08 09:39:46;;;;;;;4.53;1.83;;;19.20;99.90;;;;;;5068192;28;20137;-69
2022/07/08 09:42:17;;;;;;;6.60;1.98;;;19.40;99.90;;;;;;5057549;28;20120;-70
2022/07/08 09:44:51;;;;;;;7.65;1.85;;;19.50;99.90;;;;;;5062172;28;20044;-72
2022/07/08 09:47:16;;;;;;;10.70;2.20;;;19.60;99.90;;;;;;5048964;28;20102;-70
2022/07/08 09:49:45;;;;;;;10.43;2.20;;;19.60;99.90;;;;;;5044095;28;20473;-69
2022/07/08 09:52:19;;;;;;;6.40;1.90;;;19.70;99.90;;;;;;5063432;28;20041;-69
2022/07/08 09:54:45;;;;;;;8.48;2.38;;;19.70;99.90;;;;;;5053521;28;20064;-69
2022/07/08 09:57:13;;;;;;;5.32;1.85;;;19.70;99.90;;;;;;5060076;28;20040;-70
2022/07/08 09:59:39;;;;;;;8.02;2.22;;;19.50;99.90;;;;;;5059407;28;20044;-70
2022/07/08 10:02:04;;;;;;;5.70;2.25;;;19.40;99.90;;;;;;5067541;28;20048;-70
2022/07/08 10:04:30;;;;;;;6.45;2.05;;;19.40;99.90;;;;;;5062566;28;20132;-71
2022/07/08 10:06:58;;;;;;;6.65;2.35;;;19.50;99.90;;;;;;5049514;28;20095;-70
2022/07/08 10:09:25;;;;;;;8.77;2.10;;;19.60;99.90;;;;;;5059302;28;20432;-71
2022/07/08 10:11:51;;;;;;;6.90;1.95;;;19.80;99.90;;;;;;5059546;28;20025;-70
2022/07/08 10:14:18;;;;;;;10.82;3.10;;;20.00;99.90;;;;;;5037454;28;20485;-71
2022/07/08 10:16:46;;;;;;;6.00;2.30;;;20.20;99.90;;;;;;5049688;28;20123;-74
2022/07/08 10:19:21;;;;;;;8.57;2.47;;;20.20;99.90;;;;;;5065218;28;20045;-71
2022/07/08 10:21:51;;;;;;;8.20;2.30;;;20.30;99.90;;;;;;5063354;28;20040;-72
2022/07/08 10:24:20;;;;;;;6.38;2.17;;;20.40;99.90;;;;;;5074512;28;20115;-69
2022/07/08 10:26:47;;;;;;;7.20;2.40;;;20.40;99.90;;;;;;5049851;28;20053;-70
2022/07/08 10:29:14;;;;;;;11.52;2.67;;;20.40;99.90;;;;;;5052794;28;20049;-74
2022/07/08 10:31:52;;;;;;;8.85;2.65;;;20.40;99.90;;;;;;5052278;28;20059;-69
2022/07/08 10:34:32;;;;;;;10.30;2.40;;;20.60;99.90;;;;;;5054029;28;20076;-70
2022/07/08 10:37:00;;;;;;;7.97;2.50;;;20.80;99.90;;;;;;5055149;28;20419;-70
2022/07/08 10:39:30;;;;;;;7.05;2.53;;;20.80;99.90;;;;;;5046234;28;20056;-71
2022/07/08 10:42:02;;;;;;;10.88;2.80;;;20.70;99.90;;;;;;5055512;28;20053;-71
2022/07/08 10:44:48;;;;;;;12.80;2.60;;;20.80;99.90;;;;;;5064825;28;20048;-70
2022/07/08 10:47:32;;;;;;;7.07;2.20;;;20.80;99.90;;;;;;5057285;28;20048;-70
2022/07/08 10:50:08;;;;;;;6.90;2.30;;;20.70;99.90;;;;;;5052318;28;20056;-71
2022/07/08 10:52:41;;;;;;;5.00;2.08;;;20.90;99.90;;;;;;5073490;28;20124;-72
2022/07/08 10:55:16;;;;;;;5.25;2.00;;;21.10;99.90;;;;;;5047984;28;20063;-74
2022/07/08 10:57:58;;;;;;;5.78;1.90;;;21.10;99.90;;;;;;5048615;28;20048;-69
2022/07/08 11:00:24;;;;;;;7.60;2.10;;;21.40;99.90;;;;;;5043270;28;20049;-71
2022/07/08 11:02:50;;;;;;;5.05;1.73;;;21.60;99.90;;;;;;5049907;28;20088;-70
2022/07/08 11:05:36;;;;;;;6.95;2.30;;;22.00;99.90;;;;;;5064342;28;20167;-69
2022/07/08 11:08:20;;;;;;;4.30;1.80;;;21.90;99.90;;;;;;5066046;28;20076;-70
2022/07/08 11:10:47;;;;;;;6.50;2.20;;;21.90;99.90;;;;;;5061951;28;20048;-70
2022/07/08 11:13:13;;;;;;;6.15;2.10;;;22.00;99.90;;;;;;5033909;28;20519;-72
2022/07/08 11:15:38;;;;;;;6.60;2.10;;;22.20;99.90;;;;;;5060758;28;20052;-70
2022/07/08 11:18:05;;;;;;;6.68;2.30;;;22.10;99.90;;;;;;5059545;28;20128;-71
2022/07/08 11:20:32;;;;;;;7.75;2.10;;;22.20;99.90;;;;;;5057600;28;20489;-71
2022/07/08 11:23:03;;;;;;;9.00;2.40;;;22.30;99.90;;;;;;5068892;28;20066;-71
2022/07/08 11:25:28;;;;;;;8.90;2.45;;;22.50;99.90;;;;;;5070511;28;20098;-72
2022/07/08 11:27:54;;;;;;;7.50;2.00;;;22.70;99.90;;;;;;5054062;28;20048;-71
2022/07/08 11:30:20;;;;;;;5.32;2.20;;;22.70;99.90;;;;;;5088928;28;20048;-71
2022/07/08 11:32:50;;;;;;;4.15;1.80;;;22.40;99.90;;;;;;5048357;28;20047;-71
2022/07/08 11:35:21;;;;;;;6.10;2.10;;;22.40;99.90;;;;;;5052519;28;20486;-73
2022/07/08 11:37:46;;;;;;;7.43;2.50;;;22.50;99.90;;;;;;5071302;28;20055;-70
2022/07/08 11:40:15;;;;;;;7.88;2.70;;;22.40;99.90;;;;;;5089079;28;20779;-70
2022/07/08 11:42:42;;;;;;;8.02;2.40;;;22.70;99.90;;;;;;5076563;28;20067;-71
2022/07/08 11:45:10;;;;;;;7.57;2.55;;;22.70;99.90;;;;;;5041446;28;20126;-71
2022/07/08 11:47:36;;;;;;;7.30;2.00;;;23.00;99.90;;;;;;5050894;28;20508;-72
2022/07/08 11:50:04;;;;;;;5.55;2.05;;;22.90;99.90;;;;;;5074340;28;20045;-70
2022/07/08 11:52:30;;;;;;;9.05;2.33;;;23.00;99.90;;;;;;5064969;28;20055;-71
2022/07/08 11:54:59;;;;;;;5.47;2.33;;;23.20;99.90;;;;;;5061758;28;20055;-71
2022/07/08 11:57:25;;;;;;;4.60;2.30;;;23.80;99.90;;;;;;5088804;28;20041;-70
2022/07/08 11:59:51;;;;;;;8.30;2.47;;;23.70;99.90;;;;;;5081689;28;20056;-71
2022/07/08 12:02:23;;;;;;;8.48;2.53;;;24.10;99.90;;;;;;5071475;28;20550;-69
2022/07/08 12:04:51;;;;;;;7.65;2.30;;;24.10;99.90;;;;;;5075140;28;20476;-72
2022/07/08 12:07:25;;;;;;;7.40;2.42;;;23.80;99.90;;;;;;5037908;28;20098;-69
2022/07/08 12:09:59;;;;;;;6.20;2.60;;;23.70;99.90;;;;;;5064598;28;20044;-70
2022/07/08 12:12:27;;;;;;;6.82;2.28;;;23.40;99.90;;;;;;5051783;28;20056;-70
2022/07/08 12:14:53;;;;;;;7.57;2.70;;;23.20;99.90;;;;;;5068858;28;20053;-71
2022/07/08 12:17:28;;;;;;;4.32;2.67;;;23.20;99.90;;;;;;5071281;28;20500;-70
2022/07/08 12:19:55;;;;;;;5.20;2.40;;;23.20;99.90;;;;;;5072236;28;20048;-70
2022/07/08 12:22:49;;;;;;;7.15;2.38;;;23.20;99.90;;;;;;5064978;28;20049;-71
2022/07/08 12:25:19;;;;;;;4.47;2.40;;;23.40;99.90;;;;;;5064062;28;20048;-70
2022/07/08 12:28:01;;;;;;;6.03;2.10;;;23.20;99.90;;;;;;5062342;28;20090;-73
2022/07/08 12:30:29;;;;;;;6.68;2.15;;;23.30;99.90;;;;;;5071991;28;20056;-70
2022/07/08 12:33:03;;;;;;;8.10;2.55;;;23.10;99.90;;;;;;5066232;28;20052;-70
2022/07/08 12:35:34;;;;;;;7.45;2.78;;;23.30;99.90;;;;;;5088167;28;20485;-70
2022/07/08 12:38:08;;;;;;;5.80;2.35;;;23.50;99.90;;;;;;5048213;28;20124;-70
2022/07/08 12:40:43;;;;;;;7.45;2.30;;;23.50;99.90;;;;;;5078904;28;20207;-70
2022/07/08 12:43:13;;;;;;;6.65;2.35;;;23.30;99.90;;;;;;5065471;28;20054;-72